El Paso, TX (88556)

8:04 AM MDT on July 25, 2016 (GMT -0600)
Shock | | Change Station

Elev 3924 ft 31.76 °N, 106.33 °W | Updated 10 minutes ago

Haze
Haze
81.0 °F
Feels Like 81 °F
N
1.1
Wind Variable Wind from South

Today
High -- | Low -- °F
--% Chance of Precip.
Yesterday
High -- | Low -- °F
Precip. -- in
Pressure 29.85 in
Visibility 6.0 miles
Clouds Few 12000 ft
Few 25000 ft
Heat Index 81 °F
Dew Point 56 °F
Humidity 43%
Rainfall 0.00 in
Snow Depth Not available.
6:16 AM 8:06 PM
Waning Gibbous, 65% visible
METAR KELP 251351Z 34005KT 6SM HZ FEW120 FEW250 28/13 A3010 RMK AO2 SLP108 T02780128
Pressure 29.85 in
Visibility 6.0 miles
Clouds Few 12000 ft
Few 25000 ft
Heat Index 81 °F
Dew Point 56 °F
Humidity 43%
Rainfall 0.00 in
Snow Depth Not available.
6:16 AM 8:06 PM
Waning Gibbous, 65% visible
METAR KELP 251351Z 34005KT 6SM HZ FEW120 FEW250 28/13 A3010 RMK AO2 SLP108 T02780128

10-Day Weather Forecast

Almanac

Astronomy

Jul. 25, 2016 Rise Set
Actual Time
Civil Twilight
Nautical Twilight
Astronomical Twilight
Moon
Length of Visible Light
Length of Day
Tomorrow will be .
, % of the Moon is Illuminated

Today's Extremes

State Highs State Lows

Community

WunderPhotos

Upload Photos

1,927,300 photos uploaded!

WunderBlog® & News

Nearby

Air Quality

  Air Quality AQ Index Pollutant
Not available.

Snow Depth

Station Depth Elevation

Earthquake Activity

City Distance Mag. Time & Date
Minimum magnitude displayed is 2.5.

Coastal Water Temperatures

Place Temperature

Stations

Nearby Weather Stations

Station Location Temp. Windchill Dew Point Humidity Wind Precip. Elev Updated Type
                   

Watches & Warnings

There are currently no watches in effect.